Time;durP1;ratioP1;P1;durP2;ratioP2;P2;SDS_P1;SDS_P2;PMS_P1;PMS_P2;Temp;Humidity;BMP_temperature;BMP_pressure;BME280_temperature;BME280_humidity;BME280_pressure;Samples;Min_cycle;Max_cycle;Signal;HPM_P1;HPM_P2
2023/11/14 00:01:07;;;;;;;;;;;8.60;72.30;;;;;;4961180;28;87809;-59
2023/11/14 00:03:32;;;;;;;;;;;8.60;72.30;;;;;;4959732;28;87049;-59
2023/11/14 00:05:59;;;;;;;;;;;8.60;72.30;;;;;;4952830;28;87825;-59
2023/11/14 00:08:25;;;;;;;;;;;8.60;72.20;;;;;;4959435;28;88604;-59
2023/11/14 00:10:51;;;;;;;;;;;8.60;72.40;;;;;;4959257;28;88629;-59
2023/11/14 00:13:17;;;;;;;;;;;8.60;72.30;;;;;;4957085;28;88387;-59
2023/11/14 00:15:43;;;;;;;;;;;8.60;72.30;;;;;;4957937;28;87074;-59
2023/11/14 00:18:09;;;;;;;;;;;8.50;72.30;;;;;;4963569;28;88021;-59
2023/11/14 00:20:35;;;;;;;;;;;8.50;72.60;;;;;;4959159;28;88511;-60
2023/11/14 00:23:01;;;;;;;;;;;8.50;72.40;;;;;;4960711;28;86868;-59
2023/11/14 00:25:27;;;;;;;;;;;8.50;73.30;;;;;;4959347;28;86800;-58
2023/11/14 00:27:52;;;;;;;;;;;8.50;72.50;;;;;;4956568;28;88618;-55
2023/11/14 00:30:18;;;;;;;;;;;8.50;72.50;;;;;;4959335;28;87363;-59
2023/11/14 00:32:44;;;;;;;;;;;8.50;72.40;;;;;;4958452;28;88375;-59
2023/11/14 00:35:10;;;;;;;;;;;8.50;72.40;;;;;;4958109;28;87301;-59
2023/11/14 00:37:36;;;;;;;;;;;8.50;72.50;;;;;;4963193;28;88185;-60
2023/11/14 00:40:02;;;;;;;;;;;8.50;72.60;;;;;;4962300;28;87540;-60
2023/11/14 00:42:29;;;;;;;;;;;8.40;72.50;;;;;;4957375;28;87714;-60
2023/11/14 00:44:55;;;;;;;;;;;8.40;72.60;;;;;;4960157;28;87759;-58
2023/11/14 00:47:20;;;;;;;;;;;8.40;72.70;;;;;;4959924;28;87994;-60
2023/11/14 00:49:46;;;;;;;;;;;8.40;72.80;;;;;;4962287;28;86173;-58
2023/11/14 00:52:12;;;;;;;;;;;8.40;72.70;;;;;;4961413;28;86862;-58
2023/11/14 00:54:38;;;;;;;;;;;8.40;72.60;;;;;;4957145;28;87055;-58
2023/11/14 00:57:04;;;;;;;;;;;8.40;72.50;;;;;;4959808;28;87868;-58
2023/11/14 00:59:29;;;;;;;;;;;8.40;72.70;;;;;;4962234;28;87552;-60
2023/11/14 01:01:58;;;;;;;;;;;8.40;72.60;;;;;;4961595;28;87527;-60
2023/11/14 01:04:24;;;;;;;;;;;8.40;72.60;;;;;;4962192;28;87976;-58
2023/11/14 01:06:49;;;;;;;;;;;8.40;72.40;;;;;;4963957;28;87528;-60
2023/11/14 01:09:15;;;;;;;;;;;8.40;72.40;;;;;;4961216;28;86911;-60
2023/11/14 01:11:40;;;;;;;;;;;8.40;72.50;;;;;;4959244;28;86987;-60
2023/11/14 01:14:06;;;;;;;;;;;8.30;72.40;;;;;;4960882;28;87967;-60
2023/11/14 01:16:32;;;;;;;;;;;8.30;72.60;;;;;;4961228;28;87111;-60
2023/11/14 01:18:57;;;;;;;;;;;8.30;72.50;;;;;;4961370;28;87595;-59
2023/11/14 01:21:23;;;;;;;;;;;8.30;72.50;;;;;;4962556;28;88008;-60
2023/11/14 01:23:48;;;;;;;;;;;8.30;72.40;;;;;;4961230;28;86937;-60
2023/11/14 01:26:14;;;;;;;;;;;8.30;72.50;;;;;;4959185;28;87505;-60
2023/11/14 01:28:41;;;;;;;;;;;8.30;72.70;;;;;;4962835;28;86979;-59
2023/11/14 01:31:07;;;;;;;;;;;8.30;72.60;;;;;;4959379;28;87660;-60
2023/11/14 01:33:32;;;;;;;;;;;8.30;72.60;;;;;;4960231;28;87676;-60
2023/11/14 01:35:58;;;;;;;;;;;8.20;72.60;;;;;;4962651;28;86961;-59
2023/11/14 01:38:24;;;;;;;;;;;8.30;72.50;;;;;;4964691;28;86769;-60
2023/11/14 01:40:50;;;;;;;;;;;8.30;72.50;;;;;;4960706;28;87056;-60
2023/11/14 01:43:16;;;;;;;;;;;8.20;72.50;;;;;;4963937;28;87073;-60
2023/11/14 01:45:41;;;;;;;;;;;8.20;72.60;;;;;;4959193;28;87949;-60
2023/11/14 01:48:07;;;;;;;;;;;8.30;72.40;;;;;;4963214;28;87039;-60
2023/11/14 01:50:33;;;;;;;;;;;8.30;72.60;;;;;;4958595;28;87025;-59
2023/11/14 01:52:58;;;;;;;;;;;8.20;72.80;;;;;;4958764;28;88840;-58
2023/11/14 01:55:25;;;;;;;;;;;8.20;72.60;;;;;;4964741;28;87187;-60
2023/11/14 01:57:54;;;;;;;;;;;8.20;72.70;;;;;;4956683;28;88621;-60
2023/11/14 02:00:20;;;;;;;;;;;8.20;72.50;;;;;;4963964;28;88040;-59
2023/11/14 02:02:46;;;;;;;;;;;8.20;72.60;;;;;;4963130;28;86862;-60
2023/11/14 02:05:12;;;;;;;;;;;8.20;72.40;;;;;;4958406;28;87328;-60
2023/11/14 02:07:37;;;;;;;;;;;8.30;72.50;;;;;;4962286;28;87379;-60
2023/11/14 02:10:04;;;;;;;;;;;8.20;72.40;;;;;;4960545;28;88154;-60
2023/11/14 02:12:29;;;;;;;;;;;8.20;72.50;;;;;;4962718;28;87555;-59
2023/11/14 02:14:55;;;;;;;;;;;8.20;72.70;;;;;;4961363;28;87079;-60
2023/11/14 02:17:20;;;;;;;;;;;8.20;72.60;;;;;;4960027;28;87044;-60
2023/11/14 02:19:46;;;;;;;;;;;8.20;72.40;;;;;;4957396;28;87038;-60
2023/11/14 02:22:12;;;;;;;;;;;8.10;72.60;;;;;;4955118;28;87985;-60
2023/11/14 02:24:39;;;;;;;;;;;8.20;72.50;;;;;;4959154;28;87634;-59
2023/11/14 02:27:07;;;;;;;;;;;8.20;72.40;;;;;;4961818;28;86249;-59
2023/11/14 02:29:35;;;;;;;;;;;8.10;72.70;;;;;;4960075;28;87321;-60
2023/11/14 02:32:00;;;;;;;;;;;8.10;72.50;;;;;;4960858;28;87116;-58
2023/11/14 02:34:26;;;;;;;;;;;8.10;72.60;;;;;;4963972;28;87890;-60
2023/11/14 02:36:51;;;;;;;;;;;8.10;72.50;;;;;;4962905;28;88533;-59
2023/11/14 02:39:17;;;;;;;;;;;8.10;72.50;;;;;;4960364;28;87177;-59
2023/11/14 02:41:42;;;;;;;;;;;8.20;72.50;;;;;;4958673;28;87013;-60
2023/11/14 02:44:08;;;;;;;;;;;8.10;72.50;;;;;;4960753;28;88327;-60
2023/11/14 02:46:34;;;;;;;;;;;8.10;72.50;;;;;;4959224;28;87277;-59
2023/11/14 02:49:18;;;;;;;;;;;8.10;72.50;;;;;;4959086;28;87817;-60
2023/11/14 02:51:44;;;;;;;;;;;8.10;72.50;;;;;;4957910;28;87702;-60
2023/11/14 02:54:09;;;;;;;;;;;8.10;72.50;;;;;;4959449;28;87834;-60
2023/11/14 02:56:35;;;;;;;;;;;8.10;72.50;;;;;;4957249;28;86903;-59
2023/11/14 02:59:00;;;;;;;;;;;8.10;72.40;;;;;;4957865;28;91228;-60
2023/11/14 03:01:26;;;;;;;;;;;8.00;73.20;;;;;;4962706;28;88947;-60
2023/11/14 03:03:52;;;;;;;;;;;8.00;72.60;;;;;;4962728;28;87491;-60
2023/11/14 03:06:17;;;;;;;;;;;8.00;72.70;;;;;;4955223;28;87011;-60
2023/11/14 03:08:43;;;;;;;;;;;8.00;72.60;;;;;;4959537;28;87884;-60
2023/11/14 03:11:08;;;;;;;;;;;8.00;72.90;;;;;;4959120;28;87456;-59
2023/11/14 03:13:34;;;;;;;;;;;8.00;72.80;;;;;;4956946;28;86968;-59
2023/11/14 03:16:00;;;;;;;;;;;8.00;72.60;;;;;;4959381;28;86208;-60
2023/11/14 03:18:25;;;;;;;;;;;7.90;72.50;;;;;;4956078;28;88525;-60
2023/11/14 03:20:51;;;;;;;;;;;7.90;72.80;;;;;;4960979;28;87011;-60
2023/11/14 03:23:16;;;;;;;;;;;7.90;72.50;;;;;;4961288;28;87951;-60
2023/11/14 03:25:42;;;;;;;;;;;7.90;72.80;;;;;;4958745;28;87072;-60
2023/11/14 03:28:08;;;;;;;;;;;7.90;72.50;;;;;;4956564;28;87084;-60
2023/11/14 03:30:33;;;;;;;;;;;7.90;72.70;;;;;;4959218;28;87803;-60
2023/11/14 03:32:59;;;;;;;;;;;7.90;72.60;;;;;;4958971;28;87077;-60
2023/11/14 03:35:25;;;;;;;;;;;7.90;72.60;;;;;;4955863;28;87003;-60
2023/11/14 03:37:52;;;;;;;;;;;7.90;72.60;;;;;;4958211;28;88458;-60
2023/11/14 03:40:17;;;;;;;;;;;7.80;72.60;;;;;;4961852;28;86407;-60
2023/11/14 03:42:43;;;;;;;;;;;7.80;72.80;;;;;;4958027;28;87102;-60
2023/11/14 03:45:08;;;;;;;;;;;7.90;72.80;;;;;;4958604;28;87599;-60
2023/11/14 03:47:34;;;;;;;;;;;7.80;72.80;;;;;;4956062;28;87961;-60
2023/11/14 03:49:59;;;;;;;;;;;7.80;72.80;;;;;;4958265;28;87047;-59
2023/11/14 03:52:25;;;;;;;;;;;7.80;72.70;;;;;;4955522;28;87737;-59
2023/11/14 03:54:51;;;;;;;;;;;7.80;73.00;;;;;;4957140;28;86914;-60
2023/11/14 03:57:16;;;;;;;;;;;7.80;72.70;;;;;;4957603;28;87624;-60
2023/11/14 03:59:42;;;;;;;;;;;7.70;72.80;;;;;;4955366;28;87134;-60
2023/11/14 04:02:07;;;;;;;;;;;7.70;73.00;;;;;;4957622;28;87338;-60
2023/11/14 04:04:33;;;;;;;;;;;7.70;72.90;;;;;;4959991;28;86814;-60
2023/11/14 04:06:58;;;;;;;;;;;7.70;73.00;;;;;;4955794;28;86968;-60
2023/11/14 04:09:24;;;;;;;;;;;7.70;72.90;;;;;;4957803;28;88629;-60
2023/11/14 04:11:49;;;;;;;;;;;7.80;72.90;;;;;;4958926;28;87934;-60
2023/11/14 04:14:15;;;;;;;;;;;7.80;72.50;;;;;;4959699;28;88778;-60
2023/11/14 04:16:41;;;;;;;;;;;7.70;72.70;;;;;;4961540;28;87268;-60
2023/11/14 04:19:06;;;;;;;;;;;7.70;72.70;;;;;;4959391;28;87082;-60
2023/11/14 04:21:32;;;;;;;;;;;7.70;72.80;;;;;;4959861;28;87525;-60
2023/11/14 04:23:58;;;;;;;;;;;7.70;72.70;;;;;;4960872;28;87401;-60
2023/11/14 04:26:23;;;;;;;;;;;7.70;72.60;;;;;;4961721;28;87075;-59
2023/11/14 04:28:49;;;;;;;;;;;7.70;72.70;;;;;;4961049;28;86621;-60
2023/11/14 04:31:15;;;;;;;;;;;7.60;72.80;;;;;;4960616;28;86866;-60
2023/11/14 04:33:40;;;;;;;;;;;7.70;72.60;;;;;;4958661;28;87127;-60
2023/11/14 04:36:06;;;;;;;;;;;7.60;72.70;;;;;;4959980;28;89425;-60
2023/11/14 04:38:33;;;;;;;;;;;7.70;72.70;;;;;;4959559;28;87118;-60
2023/11/14 04:40:59;;;;;;;;;;;7.70;72.80;;;;;;4958824;28;87295;-60
2023/11/14 04:43:24;;;;;;;;;;;7.60;72.70;;;;;;4960803;28;87347;-61
2023/11/14 04:45:50;;;;;;;;;;;7.60;72.70;;;;;;4959409;28;86907;-60
2023/11/14 04:48:15;;;;;;;;;;;7.60;72.90;;;;;;4962157;28;87269;-60
2023/11/14 04:50:41;;;;;;;;;;;7.60;72.80;;;;;;4961268;28;87004;-59
2023/11/14 04:53:06;;;;;;;;;;;7.60;72.60;;;;;;4958994;28;86907;-60
2023/11/14 04:55:32;;;;;;;;;;;7.60;72.80;;;;;;4959537;28;87353;-60
2023/11/14 04:57:57;;;;;;;;;;;7.70;72.50;;;;;;4960408;28;87093;-60
2023/11/14 05:00:23;;;;;;;;;;;7.60;72.70;;;;;;4957665;28;87883;-60
2023/11/14 05:02:49;;;;;;;;;;;7.60;72.70;;;;;;4959993;28;87441;-59
2023/11/14 05:05:14;;;;;;;;;;;7.60;72.70;;;;;;4959940;28;87073;-59
2023/11/14 05:07:40;;;;;;;;;;;7.60;72.70;;;;;;4958048;28;88171;-59
2023/11/14 05:10:06;;;;;;;;;;;7.60;72.50;;;;;;4960848;28;87492;-60
2023/11/14 05:12:32;;;;;;;;;;;7.60;72.50;;;;;;4959881;28;87197;-59
2023/11/14 05:14:57;;;;;;;;;;;7.60;72.60;;;;;;4959680;28;87599;-60
2023/11/14 05:17:23;;;;;;;;;;;7.50;72.70;;;;;;4958638;28;86338;-60
2023/11/14 05:19:49;;;;;;;;;;;7.50;72.40;;;;;;4965932;28;88657;-59
2023/11/14 05:22:15;;;;;;;;;;;7.50;72.60;;;;;;4955213;28;88348;-60
2023/11/14 05:24:40;;;;;;;;;;;7.50;72.50;;;;;;4959739;28;87877;-60
2023/11/14 05:27:06;;;;;;;;;;;7.50;72.70;;;;;;4962833;28;89028;-59
2023/11/14 05:29:31;;;;;;;;;;;7.50;72.70;;;;;;4960911;28;87772;-59
2023/11/14 05:31:57;;;;;;;;;;;7.50;72.60;;;;;;4960430;28;87065;-60
2023/11/14 05:34:23;;;;;;;;;;;7.50;72.50;;;;;;4962314;28;88518;-60
2023/11/14 05:36:48;;;;;;;;;;;7.50;72.60;;;;;;4958018;28;87002;-59
2023/11/14 05:39:14;;;;;;;;;;;7.40;72.50;;;;;;4961553;28;86983;-59
2023/11/14 05:41:41;;;;;;;;;;;7.50;72.70;;;;;;4959632;28;87841;-60
2023/11/14 05:44:07;;;;;;;;;;;7.50;72.70;;;;;;4962587;28;86984;-59
2023/11/14 05:46:32;;;;;;;;;;;7.50;72.70;;;;;;4960792;28;87781;-59
2023/11/14 05:48:58;;;;;;;;;;;7.40;72.60;;;;;;4961725;28;88601;-59
2023/11/14 05:51:24;;;;;;;;;;;7.40;72.60;;;;;;4960169;28;87035;-60
2023/11/14 05:53:50;;;;;;;;;;;7.40;72.50;;;;;;4966725;28;87052;-60
2023/11/14 05:56:16;;;;;;;;;;;7.40;72.70;;;;;;4961760;28;86938;-59
2023/11/14 05:58:41;;;;;;;;;;;7.40;72.70;;;;;;4961898;28;86951;-60
2023/11/14 06:01:07;;;;;;;;;;;7.40;72.60;;;;;;4958560;28;88496;-59
2023/11/14 06:03:32;;;;;;;;;;;7.40;72.70;;;;;;4958802;28;86943;-60
2023/11/14 06:05:58;;;;;;;;;;;7.40;72.60;;;;;;4958207;28;86281;-60
2023/11/14 06:08:23;;;;;;;;;;;7.40;72.60;;;;;;4963029;28;87394;-60
2023/11/14 06:10:49;;;;;;;;;;;7.40;72.50;;;;;;4965511;28;87455;-59
2023/11/14 06:13:16;;;;;;;;;;;7.40;72.40;;;;;;4963571;28;87889;-60
2023/11/14 06:15:42;;;;;;;;;;;7.40;72.40;;;;;;4960929;28;86930;-59
2023/11/14 06:18:07;;;;;;;;;;;7.40;72.70;;;;;;4956895;28;86998;-60
2023/11/14 06:20:34;;;;;;;;;;;7.40;72.50;;;;;;4959534;28;87554;-61
2023/11/14 06:23:00;;;;;;;;;;;7.40;72.30;;;;;;4961752;28;87813;-59
2023/11/14 06:25:25;;;;;;;;;;;7.40;72.40;;;;;;4959745;28;86914;-60
2023/11/14 06:27:51;;;;;;;;;;;7.40;72.60;;;;;;4957354;28;87358;-60
2023/11/14 06:30:17;;;;;;;;;;;7.40;72.20;;;;;;4958298;28;86194;-59
2023/11/14 06:32:42;;;;;;;;;;;7.40;72.10;;;;;;4959730;28;86925;-60
2023/11/14 06:35:08;;;;;;;;;;;7.40;72.40;;;;;;4961449;28;88312;-60
2023/11/14 06:37:34;;;;;;;;;;;7.40;72.40;;;;;;4957691;28;87925;-59
2023/11/14 06:40:00;;;;;;;;;;;7.30;72.30;;;;;;4958422;28;87502;-60
2023/11/14 06:42:25;;;;;;;;;;;7.30;72.20;;;;;;4962311;28;87178;-60
2023/11/14 06:44:51;;;;;;;;;;;7.30;72.40;;;;;;4958963;28;87797;-60
2023/11/14 06:47:17;;;;;;;;;;;7.40;72.40;;;;;;4958827;28;87734;-60
2023/11/14 06:49:43;;;;;;;;;;;7.30;72.40;;;;;;4955656;28;87090;-60
2023/11/14 06:52:08;;;;;;;;;;;7.30;72.40;;;;;;4956415;28;87841;-60
2023/11/14 06:54:34;;;;;;;;;;;7.30;72.40;;;;;;4958262;28;86708;-60
2023/11/14 06:56:59;;;;;;;;;;;7.30;72.40;;;;;;4964559;28;87034;-60
2023/11/14 06:59:25;;;;;;;;;;;7.30;72.50;;;;;;4958887;28;87409;-59
2023/11/14 07:01:52;;;;;;;;;;;7.30;72.50;;;;;;4958456;28;88503;-60
2023/11/14 07:04:18;;;;;;;;;;;7.30;72.60;;;;;;4959701;28;88075;-58
2023/11/14 07:06:44;;;;;;;;;;;7.30;72.70;;;;;;4958828;28;87263;-59
2023/11/14 07:09:10;;;;;;;;;;;7.20;72.70;;;;;;4956807;28;87757;-57
2023/11/14 07:11:36;;;;;;;;;;;7.20;72.80;;;;;;4957142;28;86962;-59
2023/11/14 07:14:01;;;;;;;;;;;7.20;72.80;;;;;;4959466;28;87818;-59
2023/11/14 07:16:27;;;;;;;;;;;7.20;72.90;;;;;;4959108;28;87082;-59
2023/11/14 07:18:52;;;;;;;;;;;7.20;72.90;;;;;;4962039;28;86938;-59
2023/11/14 07:21:18;;;;;;;;;;;7.20;72.90;;;;;;4959032;28;87016;-58
2023/11/14 07:23:43;;;;;;;;;;;7.20;72.80;;;;;;4962094;28;86972;-59
2023/11/14 07:26:10;;;;;;;;;;;7.20;72.90;;;;;;4962421;28;91196;-60
2023/11/14 07:28:37;;;;;;;;;;;7.10;73.00;;;;;;4958613;28;87044;-59
2023/11/14 07:31:02;;;;;;;;;;;7.20;73.10;;;;;;4957702;28;87818;-59
2023/11/14 07:33:28;;;;;;;;;;;7.20;73.10;;;;;;4955063;28;89260;-59
2023/11/14 07:35:54;;;;;;;;;;;7.20;73.00;;;;;;4959103;28;87521;-59
2023/11/14 07:38:19;;;;;;;;;;;7.10;73.00;;;;;;4962290;28;87730;-59
2023/11/14 07:40:45;;;;;;;;;;;7.10;73.10;;;;;;4962184;28;87571;-58
2023/11/14 07:43:10;;;;;;;;;;;7.20;73.10;;;;;;4956211;28;86621;-59
2023/11/14 07:45:36;;;;;;;;;;;7.30;73.20;;;;;;4958848;28;87522;-59
2023/11/14 07:48:02;;;;;;;;;;;7.30;73.00;;;;;;4955960;28;87023;-59
2023/11/14 07:50:28;;;;;;;;;;;7.40;72.90;;;;;;4957964;28;87903;-60
2023/11/14 07:52:54;;;;;;;;;;;7.40;72.70;;;;;;4960268;28;88697;-59
2023/11/14 07:55:19;;;;;;;;;;;7.40;72.70;;;;;;4956497;28;87464;-59
2023/11/14 07:57:45;;;;;;;;;;;7.40;73.40;;;;;;4961320;28;87925;-60
2023/11/14 08:00:14;;;;;;;;;;;7.50;72.70;;;;;;4958745;28;88631;-59
2023/11/14 08:02:40;;;;;;;;;;;7.50;72.50;;;;;;4962246;28;86951;-60
2023/11/14 08:05:06;;;;;;;;;;;7.50;72.80;;;;;;4957838;28;87445;-60
2023/11/14 08:07:31;;;;;;;;;;;7.50;73.00;;;;;;4958443;28;86690;-59
2023/11/14 08:09:57;;;;;;;;;;;7.50;72.90;;;;;;4959150;28;87220;-59
2023/11/14 08:12:22;;;;;;;;;;;7.50;72.80;;;;;;4950256;28;87599;-57
2023/11/14 08:14:49;;;;;;;;;;;7.50;72.80;;;;;;4978331;28;88189;-59
2023/11/14 08:17:14;;;;;;;;;;;7.50;72.90;;;;;;4977227;28;88634;-59
2023/11/14 08:19:40;;;;;;;;;;;7.50;72.90;;;;;;4976165;28;87426;-60
2023/11/14 08:22:08;;;;;;;;;;;7.40;72.90;;;;;;4977663;28;87001;-60
2023/11/14 08:24:34;;;;;;;;;;;7.50;73.00;;;;;;4974590;28;88809;-59
2023/11/14 08:27:00;;;;;;;;;;;7.50;73.10;;;;;;4980021;28;87041;-60
2023/11/14 08:29:25;;;;;;;;;;;7.40;73.10;;;;;;4981102;28;86986;-60
2023/11/14 08:31:51;;;;;;;;;;;7.50;73.20;;;;;;4975359;28;86743;-60
2023/11/14 08:34:16;;;;;;;;;;;7.50;72.90;;;;;;4977046;28;87074;-59
2023/11/14 08:36:42;;;;;;;;;;;7.50;73.00;;;;;;4980159;28;87053;-60
2023/11/14 08:39:13;;;;;;;;;;;7.50;72.90;;;;;;4975329;28;87905;-58
2023/11/14 08:41:40;;;;;;;;;;;7.50;73.20;;;;;;4976516;28;86987;-60
2023/11/14 08:44:07;;;;;;;;;;;7.50;72.90;;;;;;4975500;28;86997;-60
2023/11/14 08:46:33;;;;;;;;;;;7.50;73.20;;;;;;4980228;28;87098;-59
2023/11/14 08:48:58;;;;;;;;;;;7.50;73.00;;;;;;4975120;28;87032;-60
2023/11/14 08:51:25;;;;;;;;;;;7.50;72.90;;;;;;4978753;28;88388;-54
2023/11/14 08:53:51;;;;;;;;;;;7.50;73.10;;;;;;4979197;28;87038;-60
2023/11/14 08:56:16;;;;;;;;;;;7.50;73.20;;;;;;4977539;28;86908;-60
2023/11/14 08:58:42;;;;;;;;;;;7.50;73.00;;;;;;4979287;28;87424;-59
2023/11/14 09:01:07;;;;;;;;;;;7.50;72.90;;;;;;4980373;28;87194;-60
2023/11/14 09:03:33;;;;;;;;;;;7.50;72.80;;;;;;4977113;28;87782;-60
2023/11/14 09:05:58;;;;;;;;;;;7.60;73.30;;;;;;4982944;28;88740;-60
2023/11/14 09:08:24;;;;;;;;;;;7.50;73.40;;;;;;4982833;28;88561;-60
2023/11/14 09:10:50;;;;;;;;;;;7.50;73.40;;;;;;4977531;28;87443;-60
2023/11/14 09:13:15;;;;;;;;;;;7.60;73.00;;;;;;4979444;28;86971;-59
2023/11/14 09:15:41;;;;;;;;;;;7.60;73.30;;;;;;4984926;28;88591;-60
2023/11/14 09:18:07;;;;;;;;;;;7.60;73.10;;;;;;4977939;28;87956;-58
2023/11/14 09:20:33;;;;;;;;;;;7.50;73.00;;;;;;4976797;28;86286;-60
2023/11/14 09:22:59;;;;;;;;;;;7.50;73.10;;;;;;4979726;28;86902;-59
2023/11/14 09:25:25;;;;;;;;;;;7.60;73.30;;;;;;4981027;28;88408;-58
2023/11/14 09:27:50;;;;;;;;;;;7.60;73.10;;;;;;4979525;28;88119;-60
2023/11/14 09:30:16;;;;;;;;;;;7.60;73.60;;;;;;4977126;28;88469;-60
2023/11/14 09:32:42;;;;;;;;;;;7.60;73.40;;;;;;4982574;28;87021;-60
2023/11/14 09:35:07;;;;;;;;;;;7.60;73.90;;;;;;4980686;28;86942;-59
2023/11/14 09:37:33;;;;;;;;;;;7.50;73.40;;;;;;4979494;28;87439;-59
2023/11/14 09:39:59;;;;;;;;;;;7.50;73.90;;;;;;4980066;28;86978;-59
2023/11/14 09:42:25;;;;;;;;;;;7.50;73.70;;;;;;4981835;28;87105;-60
2023/11/14 09:44:50;;;;;;;;;;;7.60;74.10;;;;;;4976504;28;86852;-60
2023/11/14 09:47:16;;;;;;;;;;;7.60;74.20;;;;;;4981844;28;87367;-60
2023/11/14 09:49:42;;;;;;;;;;;7.60;74.10;;;;;;4983329;28;87821;-59
2023/11/14 09:52:10;;;;;;;;;;;7.60;74.20;;;;;;4979514;28;88019;-60
2023/11/14 09:54:36;;;;;;;;;;;7.60;74.10;;;;;;4976935;28;87718;-59
2023/11/14 09:57:04;;;;;;;;;;;7.60;74.20;;;;;;4979860;28;87433;-59
2023/11/14 09:59:32;;;;;;;;;;;7.60;74.60;;;;;;4979084;28;87019;-59
2023/11/14 10:01:57;;;;;;;;;;;7.70;74.80;;;;;;4976992;28;86869;-59
2023/11/14 10:04:23;;;;;;;;;;;7.70;74.70;;;;;;4979344;28;87340;-59
2023/11/14 10:06:51;;;;;;;;;;;7.70;74.70;;;;;;4982225;28;87000;-59
2023/11/14 10:09:18;;;;;;;;;;;7.70;74.90;;;;;;4984941;28;88034;-59
2023/11/14 10:11:48;;;;;;;;;;;7.70;74.80;;;;;;4975409;28;87022;-60
2023/11/14 10:14:13;;;;;;;;;;;7.70;75.20;;;;;;4978022;28;86933;-58
2023/11/14 10:16:39;;;;;;;;;;;7.70;75.20;;;;;;4980692;28;88799;-59
2023/11/14 10:19:12;;;;;;;;;;;7.70;75.00;;;;;;4978423;28;86938;-59
2023/11/14 10:21:37;;;;;;;;;;;7.80;75.30;;;;;;4979521;28;87987;-59
2023/11/14 10:24:11;;;;;;;;;;;7.80;75.30;;;;;;4978377;28;87577;-59
2023/11/14 10:26:45;;;;;;;;;;;7.80;75.10;;;;;;4979564;28;86947;-59
2023/11/14 10:29:15;;;;;;;;;;;7.80;75.60;;;;;;4977431;28;87065;-59
2023/11/14 10:31:41;;;;;;;;;;;7.80;75.30;;;;;;4985620;28;86958;-59
2023/11/14 10:34:08;;;;;;;;;;;7.80;75.50;;;;;;4982336;28;86723;-59
2023/11/14 10:36:46;;;;;;;;;;;7.80;75.60;;;;;;4978605;28;88377;-59
2023/11/14 10:39:12;;;;;;;;;;;7.80;75.40;;;;;;4980547;28;87068;-59
2023/11/14 10:41:37;;;;;;;;;;;7.80;75.30;;;;;;4980212;28;88057;-59
2023/11/14 10:44:10;;;;;;;;;;;7.80;75.90;;;;;;4979322;28;87395;-59
2023/11/14 10:46:35;;;;;;;;;;;7.80;75.60;;;;;;4975938;28;86898;-59
2023/11/14 10:49:03;;;;;;;;;;;7.80;75.50;;;;;;4980134;28;88134;-60
2023/11/14 10:51:35;;;;;;;;;;;7.90;75.60;;;;;;4979963;28;88577;-59
2023/11/14 10:54:05;;;;;;;;;;;7.90;75.70;;;;;;4978889;28;87081;-59
2023/11/14 10:56:31;;;;;;;;;;;7.90;75.50;;;;;;4976282;28;89041;-59
2023/11/14 10:58:57;;;;;;;;;;;7.90;75.50;;;;;;4978307;28;86287;-59
2023/11/14 11:01:23;;;;;;;;;;;8.00;75.90;;;;;;4980251;28;87778;-60
2023/11/14 11:03:52;;;;;;;;;;;8.00;75.70;;;;;;4976484;28;87490;-58
2023/11/14 11:06:18;;;;;;;;;;;7.90;75.70;;;;;;4977533;28;87955;-58
2023/11/14 11:08:44;;;;;;;;;;;8.00;75.80;;;;;;4975869;28;87608;-59
2023/11/14 11:11:10;;;;;;;;;;;8.00;75.90;;;;;;4978659;28;87507;-59
2023/11/14 11:13:37;;;;;;;;;;;8.00;75.90;;;;;;4977635;28;86973;-58
2023/11/14 11:16:03;;;;;;;;;;;8.00;75.80;;;;;;4980972;28;87052;-61
2023/11/14 11:18:34;;;;;;;;;;;8.00;76.00;;;;;;4979020;28;86955;-60
2023/11/14 11:21:08;;;;;;;;;;;8.00;76.10;;;;;;4977221;28;86896;-59
2023/11/14 11:23:54;;;;;;;;;;;8.00;76.00;;;;;;4974798;28;86954;-57
2023/11/14 11:26:19;;;;;;;;;;;8.10;76.00;;;;;;4976862;28;86905;-60
2023/11/14 11:28:45;;;;;;;;;;;8.10;75.90;;;;;;4978863;28;86967;-59
2023/11/14 11:31:14;;;;;;;;;;;8.10;76.20;;;;;;4974735;28;88569;-59
2023/11/14 11:33:44;;;;;;;;;;;8.10;76.20;;;;;;4976511;28;86978;-59
2023/11/14 11:36:23;;;;;;;;;;;8.10;76.20;;;;;;4978124;28;86976;-59
2023/11/14 11:38:52;;;;;;;;;;;8.10;76.30;;;;;;4980339;28;87650;-59
2023/11/14 11:41:18;;;;;;;;;;;8.10;76.20;;;;;;4975697;28;87618;-60
2023/11/14 11:43:44;;;;;;;;;;;8.10;76.30;;;;;;4976819;28;87784;-60
2023/11/14 11:46:29;;;;;;;;;;;8.20;76.20;;;;;;4985160;28;87075;-59
2023/11/14 11:48:54;;;;;;;;;;;8.20;76.40;;;;;;4978125;28;86654;-59
2023/11/14 11:51:21;;;;;;;;;;;8.20;76.40;;;;;;4975116;28;87837;-59
2023/11/14 11:53:49;;;;;;;;;;;8.20;76.30;;;;;;4977452;28;86743;-59
2023/11/14 11:56:33;;;;;;;;;;;8.20;76.40;;;;;;4976752;28;87929;-59
2023/11/14 11:58:58;;;;;;;;;;;8.20;76.20;;;;;;4976843;28;87568;-59
2023/11/14 12:01:24;;;;;;;;;;;8.20;76.40;;;;;;4978326;28;87021;-59
2023/11/14 12:03:49;;;;;;;;;;;8.20;76.60;;;;;;4977696;28;86856;-59
2023/11/14 12:06:15;;;;;;;;;;;8.20;76.50;;;;;;4976533;28;87016;-59
2023/11/14 12:08:41;;;;;;;;;;;8.30;76.70;;;;;;4975887;28;86905;-59
2023/11/14 12:11:14;;;;;;;;;;;8.30;76.70;;;;;;4977918;28;87006;-59
2023/11/14 12:13:45;;;;;;;;;;;8.30;76.60;;;;;;4974496;28;86220;-59
2023/11/14 12:16:11;;;;;;;;;;;8.30;76.80;;;;;;4977922;28;87025;-59
2023/11/14 12:18:37;;;;;;;;;;;8.30;76.90;;;;;;4975791;28;87609;-58
2023/11/14 12:21:03;;;;;;;;;;;8.30;76.80;;;;;;4977898;28;87913;-59
2023/11/14 12:23:29;;;;;;;;;;;8.30;76.80;;;;;;4977849;28;87413;-59
2023/11/14 12:25:54;;;;;;;;;;;8.30;76.80;;;;;;4975531;28;86946;-59
2023/11/14 12:28:20;;;;;;;;;;;8.40;76.90;;;;;;4975283;28;86940;-59
2023/11/14 12:31:01;;;;;;;;;;;8.40;76.90;;;;;;4981351;28;88813;-59
2023/11/14 12:33:26;;;;;;;;;;;8.40;76.80;;;;;;4980104;28;87089;-59
2023/11/14 12:35:57;;;;;;;;;;;8.40;76.90;;;;;;4978397;28;86891;-59
2023/11/14 12:38:29;;;;;;;;;;;8.40;77.10;;;;;;4980266;28;87899;-59
2023/11/14 12:41:27;;;;;;;;;;;8.40;77.10;;;;;;4980719;28;87063;-59
2023/11/14 12:43:53;;;;;;;;;;;8.40;77.00;;;;;;4953017;28;88013;-60
2023/11/14 12:46:25;;;;;;;;;;;8.50;77.20;;;;;;4979301;28;87976;-59
2023/11/14 12:49:03;;;;;;;;;;;8.50;77.00;;;;;;4977844;28;88744;-60
2023/11/14 12:51:30;;;;;;;;;;;8.50;77.00;;;;;;4977607;28;87777;-59
2023/11/14 12:53:55;;;;;;;;;;;8.50;77.10;;;;;;4978088;28;87144;-59
2023/11/14 12:56:21;;;;;;;;;;;8.50;77.20;;;;;;4979547;28;86899;-59
2023/11/14 12:58:47;;;;;;;;;;;8.50;77.10;;;;;;4979738;28;87519;-59
2023/11/14 13:01:12;;;;;;;;;;;8.50;77.30;;;;;;4977791;28;87040;-59
2023/11/14 13:03:38;;;;;;;;;;;8.60;77.20;;;;;;4980687;28;86813;-59
2023/11/14 13:06:03;;;;;;;;;;;8.60;77.10;;;;;;4981931;28;87541;-59
2023/11/14 13:08:29;;;;;;;;;;;8.60;77.20;;;;;;4977831;28;86965;-60
2023/11/14 13:10:54;;;;;;;;;;;8.60;77.20;;;;;;4979203;28;89501;-59
2023/11/14 13:13:20;;;;;;;;;;;8.60;77.20;;;;;;4978816;28;87012;-59
2023/11/14 13:15:46;;;;;;;;;;;8.60;77.30;;;;;;4978510;28;86864;-59
2023/11/14 13:18:11;;;;;;;;;;;8.60;77.20;;;;;;4976806;28;87558;-59
2023/11/14 13:20:37;;;;;;;;;;;8.60;77.30;;;;;;4979520;28;86967;-60
2023/11/14 13:23:03;;;;;;;;;;;8.70;77.30;;;;;;4977822;28;86954;-59
2023/11/14 13:25:29;;;;;;;;;;;8.70;77.30;;;;;;4977205;28;87540;-59
2023/11/14 13:27:54;;;;;;;;;;;8.70;77.30;;;;;;4983604;28;86320;-60
2023/11/14 13:30:20;;;;;;;;;;;8.70;77.40;;;;;;4978181;28;87475;-59
2023/11/14 13:32:47;;;;;;;;;;;8.70;77.40;;;;;;4978086;28;86956;-59
2023/11/14 13:35:13;;;;;;;;;;;8.70;77.30;;;;;;4979578;28;87919;-58
2023/11/14 13:37:40;;;;;;;;;;;8.70;77.50;;;;;;4977530;28;88644;-59
2023/11/14 13:40:08;;;;;;;;;;;8.70;77.50;;;;;;4978125;28;86982;-59
2023/11/14 13:42:34;;;;;;;;;;;8.70;77.60;;;;;;4979296;28;87936;-59
2023/11/14 13:45:00;;;;;;;;;;;8.80;77.50;;;;;;4977105;28;87500;-59
2023/11/14 13:47:25;;;;;;;;;;;8.80;77.50;;;;;;4978171;28;87323;-59
2023/11/14 13:49:51;;;;;;;;;;;8.80;77.60;;;;;;4982484;28;86967;-59
2023/11/14 13:52:17;;;;;;;;;;;8.80;77.50;;;;;;4977691;28;86363;-59
2023/11/14 13:54:42;;;;;;;;;;;8.90;77.40;;;;;;4978731;28;87194;-59
2023/11/14 13:57:09;;;;;;;;;;;8.80;77.40;;;;;;4978890;28;87405;-58
2023/11/14 13:59:35;;;;;;;;;;;8.90;77.50;;;;;;4976094;28;87925;-59
2023/11/14 14:02:01;;;;;;;;;;;8.90;77.60;;;;;;4979283;28;87687;-59
2023/11/14 14:04:26;;;;;;;;;;;8.90;77.50;;;;;;4978256;28;88650;-60
2023/11/14 14:06:52;;;;;;;;;;;8.90;77.60;;;;;;4976996;28;87140;-59
2023/11/14 14:09:19;;;;;;;;;;;8.90;77.60;;;;;;4976934;28;87030;-59
2023/11/14 14:11:45;;;;;;;;;;;9.00;77.50;;;;;;4980835;28;88719;-59
2023/11/14 14:14:11;;;;;;;;;;;9.00;77.50;;;;;;4979398;28;86958;-60
2023/11/14 14:16:37;;;;;;;;;;;8.90;77.50;;;;;;4976707;28;87850;-59
2023/11/14 14:19:03;;;;;;;;;;;8.90;77.60;;;;;;4978586;28;87012;-59
2023/11/14 14:21:29;;;;;;;;;;;9.00;77.50;;;;;;4978419;28;86991;-59
2023/11/14 14:23:55;;;;;;;;;;;9.00;77.60;;;;;;4978754;28;89542;-59
2023/11/14 14:26:21;;;;;;;;;;;9.00;77.70;;;;;;4977096;28;86979;-59